TimeEST,TemperatureF,Dew PointF,Humidity,Sea Level PressureIn,VisibilityMPH,Wind Direction,Wind SpeedMPH,Gust SpeedMPH,PrecipitationIn,Events,Conditions,WindDirDegrees,DateUTC
12:15 AM,12.4,9.5,88,29.66,3.0,NW,6.9,-,N/A,Snow,Light Snow,320,2012-12-30 05:15:00
12:35 AM,12.7,9.9,88,29.66,3.0,NNW,5.8,-,N/A,Snow,Light Snow,330,2012-12-30 05:35:00
12:55 AM,12.4,9.5,88,29.66,2.5,NNW,4.6,-,N/A,Snow,Light Snow,340,2012-12-30 05:55:00
1:15 AM,12.0,9.1,88,29.67,2.5,NNW,4.6,-,N/A,Snow,Light Snow,330,2012-12-30 06:15:00
1:35 AM,12.0,9.1,88,29.68,2.0,NNW,4.6,-,N/A,Snow,Light Snow,340,2012-12-30 06:35:00
1:55 AM,12.0,9.1,88,29.69,2.0,NNW,4.6,-,N/A,Snow,Light Snow,330,2012-12-30 06:55:00
2:15 AM,12.4,9.5,88,29.70,2.0,NW,5.8,-,N/A,Snow,Light Snow,320,2012-12-30 07:15:00
2:35 AM,12.6,9.9,89,29.71,2.5,NNW,5.8,-,N/A,Snow,Light Snow,340,2012-12-30 07:35:00
2:55 AM,13.1,10.2,88,29.71,2.0,NW,4.6,-,N/A,Snow,Light Snow,320,2012-12-30 07:55:00
3:15 AM,13.1,10.4,89,29.71,2.0,NNW,3.5,-,N/A,Snow,Light Snow,330,2012-12-30 08:15:00
3:35 AM,13.1,10.4,89,29.71,2.0,NW,3.5,-,N/A,Snow,Light Snow,310,2012-12-30 08:35:00
3:55 AM,13.5,10.9,90,29.72,1.8,NNW,3.5,-,N/A,Snow,Light Snow,340,2012-12-30 08:55:00
4:15 AM,14.5,12.0,90,29.72,2.0,Calm,Calm,-,N/A,Snow,Light Snow,0,2012-12-30 09:15:00
4:35 AM,14.5,12.0,90,29.73,1.8,Calm,Calm,-,N/A,Snow,Light Snow,0,2012-12-30 09:35:00
4:55 AM,14.5,12.0,90,29.72,2.5,WNW,3.5,-,N/A,Snow,Light Snow,290,2012-12-30 09:55:00
5:15 AM,14.5,12.0,90,29.73,2.0,WNW,3.5,-,N/A,Snow,Light Snow,300,2012-12-30 10:15:00
5:35 AM,14.5,12.0,90,29.73,2.0,NW,3.5,-,N/A,Snow,Light Snow,310,2012-12-30 10:35:00
5:55 AM,14.5,11.8,89,29.74,3.0,WNW,4.6,-,N/A,Snow,Light Snow,290,2012-12-30 10:55:00
6:15 AM,14.5,11.3,87,29.75,3.0,Calm,Calm,-,N/A,Snow,Light Snow,0,2012-12-30 11:15:00
6:35 AM,14.4,10.8,86,29.76,2.5,WNW,5.8,-,N/A,Snow,Light Snow,300,2012-12-30 11:35:00
7:15 AM,12.6,8.4,83,29.78,3.0,WNW,6.9,-,N/A,Snow,Light Snow,300,2012-12-30 12:15:00
7:35 AM,12.2,7.9,83,29.79,2.5,West,6.9,20.7,N/A,Snow,Light Snow,280,2012-12-30 12:35:00
7:55 AM,12.0,7.7,83,29.79,2.0,WNW,5.8,16.1,N/A,Snow,Light Snow,300,2012-12-30 12:55:00
8:15 AM,12.0,7.7,83,29.80,2.5,WNW,6.9,-,N/A,Snow,Light Snow,300,2012-12-30 13:15:00
8:55 AM,12.0,7.3,81,29.83,2.5,WNW,8.1,19.6,N/A,Snow,Light Snow,290,2012-12-30 13:55:00
9:15 AM,12.0,7.3,81,29.84,2.5,West,9.2,-,N/A,Snow,Light Snow,280,2012-12-30 14:15:00
9:35 AM,12.0,6.8,80,29.85,2.5,West,5.8,17.3,N/A,Snow,Light Snow,280,2012-12-30 14:35:00
9:55 AM,12.0,6.6,79,29.86,3.0,WNW,8.1,19.6,N/A,Snow,Light Snow,300,2012-12-30 14:55:00
10:15 AM,12.0,5.9,76,29.87,7.0,WNW,6.9,20.7,N/A,Snow,Light Snow,300,2012-12-30 15:15:00
10:35 AM,12.0,5.9,76,29.88,4.0,West,12.7,23.0,N/A,Snow,Light Snow,280,2012-12-30 15:35:00
10:55 AM,12.0,5.7,76,29.88,7.0,WNW,12.7,20.7,N/A,,Overcast,290,2012-12-30 15:55:00
11:15 AM,12.0,5.2,74,29.90,7.0,West,10.4,17.3,N/A,Snow,Light Snow,280,2012-12-30 16:15:00
11:35 AM,12.0,5.0,73,29.90,10.0,WNW,6.9,19.6,N/A,,Overcast,290,2012-12-30 16:35:00
11:55 AM,12.0,4.3,71,29.89,7.0,WNW,13.8,26.5,N/A,Snow,Light Snow,300,2012-12-30 16:55:00
12:15 PM,12.0,4.8,73,29.89,7.0,WNW,9.2,19.6,N/A,Snow,Light Snow,300,2012-12-30 17:15:00
12:35 PM,12.0,4.8,73,29.90,10.0,NW,10.4,23.0,N/A,,Overcast,310,2012-12-30 17:35:00
12:55 PM,12.0,4.6,72,29.90,10.0,WNW,12.7,19.6,N/A,,Overcast,300,2012-12-30 17:55:00
1:15 PM,12.0,4.5,72,29.90,10.0,WNW,9.2,-,N/A,,Overcast,300,2012-12-30 18:15:00
1:35 PM,12.0,4.1,71,29.90,10.0,WNW,10.4,-,N/A,Snow,Light Snow,290,2012-12-30 18:35:00
1:55 PM,12.0,3.7,69,29.90,10.0,NW,10.4,-,N/A,,Overcast,310,2012-12-30 18:55:00
2:15 PM,12.9,3.7,67,29.91,10.0,WNW,6.9,-,N/A,,Overcast,290,2012-12-30 19:15:00
2:55 PM,12.0,3.2,68,29.94,10.0,WNW,6.9,18.4,N/A,,Scattered Clouds,290,2012-12-30 19:55:00
3:15 PM,12.0,3.2,68,29.94,10.0,WNW,5.8,-,N/A,,Clear,300,2012-12-30 20:15:00
3:35 PM,12.0,3.7,69,29.95,10.0,WNW,10.4,18.4,N/A,,Clear,300,2012-12-30 20:35:00
3:55 PM,9.5,2.1,72,29.97,10.0,West,4.6,16.1,N/A,,Scattered Clouds,280,2012-12-30 20:55:00
4:15 PM,9.5,2.3,73,29.98,10.0,West,8.1,-,N/A,,Clear,270,2012-12-30 21:15:00
4:35 PM,9.5,2.3,73,29.99,10.0,WNW,8.1,-,N/A,,Clear,300,2012-12-30 21:35:00
4:55 PM,9.5,2.5,73,29.99,10.0,NW,3.5,-,N/A,,Clear,310,2012-12-30 21:55:00
5:15 PM,9.5,2.8,74,30.01,10.0,Calm,Calm,-,N/A,,Clear,0,2012-12-30 22:15:00
5:35 PM,9.5,2.8,74,30.02,10.0,Calm,Calm,-,N/A,,Clear,0,2012-12-30 22:35:00
5:55 PM,9.5,2.3,73,30.03,10.0,WNW,4.6,16.1,N/A,,Clear,290,2012-12-30 22:55:00
6:15 PM,9.5,2.3,73,30.04,10.0,WNW,5.8,-,N/A,,Clear,290,2012-12-30 23:15:00
6:35 PM,9.5,2.3,73,30.05,10.0,WNW,6.9,-,N/A,,Clear,290,2012-12-30 23:35:00
6:55 PM,9.5,2.3,73,30.06,10.0,WNW,8.1,18.4,N/A,,Clear,300,2012-12-30 23:55:00
7:15 PM,9.5,2.5,73,30.07,10.0,West,9.2,19.6,N/A,,Clear,280,2012-12-31 00:15:00
7:35 PM,9.5,2.7,74,30.08,10.0,WNW,4.6,-,N/A,,Clear,300,2012-12-31 00:35:00
7:55 PM,9.5,3.0,75,30.08,10.0,West,11.5,17.3,N/A,,Clear,280,2012-12-31 00:55:00
8:15 PM,9.5,3.0,75,30.08,10.0,WNW,9.2,17.3,N/A,,Clear,290,2012-12-31 01:15:00
8:35 PM,9.9,3.2,74,30.09,10.0,West,10.4,17.3,N/A,,Clear,280,2012-12-31 01:35:00
8:55 PM,9.5,3.0,75,30.09,10.0,WNW,5.8,-,N/A,,Clear,290,2012-12-31 01:55:00
9:15 PM,9.5,3.0,75,30.09,10.0,WNW,5.8,-,N/A,,Clear,290,2012-12-31 02:15:00
9:35 PM,9.5,2.8,74,30.09,10.0,West,5.8,-,N/A,,Clear,280,2012-12-31 02:35:00
9:55 PM,9.5,2.7,74,30.09,10.0,West,8.1,-,N/A,,Clear,280,2012-12-31 02:55:00
10:15 PM,9.9,3.0,74,30.10,10.0,WNW,8.1,-,N/A,,Clear,290,2012-12-31 03:15:00
10:35 PM,11.8,4.8,73,30.10,10.0,WNW,6.9,-,N/A,,Mostly Cloudy,300,2012-12-31 03:35:00
10:55 PM,12.0,4.8,73,30.10,10.0,WNW,4.6,-,N/A,,Overcast,290,2012-12-31 03:55:00
11:15 PM,12.0,4.8,73,30.10,10.0,West,3.5,-,N/A,,Overcast,280,2012-12-31 04:15:00
11:35 PM,12.0,4.8,73,30.10,10.0,WNW,3.5,-,N/A,,Overcast,290,2012-12-31 04:35:00
11:55 PM,12.0,4.8,73,30.09,10.0,Calm,Calm,-,N/A,,Overcast,0,2012-12-31 04:55:00